sensor_id;sensor_type;location;lat;lon;timestamp;P1;durP1;ratioP1;P2;durP2;ratioP2
57297;SDS011;43147;50.972;18.210;2023-12-04T00:01:29;43.40;;;16.30;;
57297;SDS011;43147;50.972;18.210;2023-12-04T00:03:54;30.30;;;13.90;;
57297;SDS011;43147;50.972;18.210;2023-12-04T00:06:20;37.80;;;17.10;;
57297;SDS011;43147;50.972;18.210;2023-12-04T00:08:46;50.10;;;18.60;;
57297;SDS011;43147;50.972;18.210;2023-12-04T00:11:11;32.40;;;15.10;;
57297;SDS011;43147;50.972;18.210;2023-12-04T00:13:37;33.00;;;14.30;;
57297;SDS011;43147;50.972;18.210;2023-12-04T00:16:02;39.70;;;15.50;;
57297;SDS011;43147;50.972;18.210;2023-12-04T00:18:29;31.40;;;14.90;;
57297;SDS011;43147;50.972;18.210;2023-12-04T00:20:54;22.10;;;12.90;;
57297;SDS011;43147;50.972;18.210;2023-12-04T00:23:22;32.50;;;13.40;;
57297;SDS011;43147;50.972;18.210;2023-12-04T00:25:48;31.80;;;12.30;;
57297;SDS011;43147;50.972;18.210;2023-12-04T00:28:13;20.90;;;10.60;;
57297;SDS011;43147;50.972;18.210;2023-12-04T00:30:39;31.00;;;11.20;;
57297;SDS011;43147;50.972;18.210;2023-12-04T00:33:04;16.10;;;9.20;;
57297;SDS011;43147;50.972;18.210;2023-12-04T00:35:30;26.60;;;13.80;;
57297;SDS011;43147;50.972;18.210;2023-12-04T00:37:55;28.10;;;10.80;;
57297;SDS011;43147;50.972;18.210;2023-12-04T00:40:21;39.80;;;18.20;;
57297;SDS011;43147;50.972;18.210;2023-12-04T00:42:46;38.40;;;14.70;;
57297;SDS011;43147;50.972;18.210;2023-12-04T00:45:11;28.50;;;12.50;;
57297;SDS011;43147;50.972;18.210;2023-12-04T00:47:37;30.00;;;15.00;;
57297;SDS011;43147;50.972;18.210;2023-12-04T00:50:03;30.90;;;12.30;;
57297;SDS011;43147;50.972;18.210;2023-12-04T00:52:29;26.80;;;13.30;;
57297;SDS011;43147;50.972;18.210;2023-12-04T00:54:54;27.60;;;9.90;;
57297;SDS011;43147;50.972;18.210;2023-12-04T00:57:20;28.20;;;12.90;;
57297;SDS011;43147;50.972;18.210;2023-12-04T00:59:45;25.60;;;12.50;;
57297;SDS011;43147;50.972;18.210;2023-12-04T01:02:11;31.60;;;9.90;;
57297;SDS011;43147;50.972;18.210;2023-12-04T01:04:39;24.30;;;13.00;;
57297;SDS011;43147;50.972;18.210;2023-12-04T01:07:05;50.30;;;14.90;;
57297;SDS011;43147;50.972;18.210;2023-12-04T01:09:31;29.00;;;13.80;;
57297;SDS011;43147;50.972;18.210;2023-12-04T01:11:57;30.10;;;12.80;;
57297;SDS011;43147;50.972;18.210;2023-12-04T01:14:23;17.20;;;11.10;;
57297;SDS011;43147;50.972;18.210;2023-12-04T01:16:48;27.00;;;11.60;;
57297;SDS011;43147;50.972;18.210;2023-12-04T01:19:14;27.10;;;11.90;;
57297;SDS011;43147;50.972;18.210;2023-12-04T01:21:39;37.30;;;13.40;;
57297;SDS011;43147;50.972;18.210;2023-12-04T01:24:05;27.50;;;14.60;;
57297;SDS011;43147;50.972;18.210;2023-12-04T01:26:31;24.80;;;11.50;;
57297;SDS011;43147;50.972;18.210;2023-12-04T01:28:56;27.20;;;12.50;;
57297;SDS011;43147;50.972;18.210;2023-12-04T01:31:22;30.10;;;13.40;;
57297;SDS011;43147;50.972;18.210;2023-12-04T01:33:47;33.80;;;12.20;;
57297;SDS011;43147;50.972;18.210;2023-12-04T01:36:13;25.80;;;13.30;;
57297;SDS011;43147;50.972;18.210;2023-12-04T01:38:38;31.80;;;11.80;;
57297;SDS011;43147;50.972;18.210;2023-12-04T01:41:04;27.70;;;10.40;;
57297;SDS011;43147;50.972;18.210;2023-12-04T01:43:30;25.20;;;11.20;;
57297;SDS011;43147;50.972;18.210;2023-12-04T01:45:56;36.40;;;15.10;;
57297;SDS011;43147;50.972;18.210;2023-12-04T01:48:22;29.10;;;14.30;;
57297;SDS011;43147;50.972;18.210;2023-12-04T01:50:48;30.60;;;13.90;;
57297;SDS011;43147;50.972;18.210;2023-12-04T01:53:14;42.80;;;17.10;;
57297;SDS011;43147;50.972;18.210;2023-12-04T01:55:39;25.50;;;14.10;;
57297;SDS011;43147;50.972;18.210;2023-12-04T01:58:05;41.00;;;14.00;;
57297;SDS011;43147;50.972;18.210;2023-12-04T02:00:32;38.70;;;16.50;;
57297;SDS011;43147;50.972;18.210;2023-12-04T02:02:57;34.60;;;15.60;;
57297;SDS011;43147;50.972;18.210;2023-12-04T02:05:23;38.80;;;18.50;;
57297;SDS011;43147;50.972;18.210;2023-12-04T02:07:49;34.40;;;17.10;;
57297;SDS011;43147;50.972;18.210;2023-12-04T02:10:15;47.20;;;21.70;;
57297;SDS011;43147;50.972;18.210;2023-12-04T02:12:41;66.20;;;20.80;;
57297;SDS011;43147;50.972;18.210;2023-12-04T02:15:07;40.90;;;19.70;;
57297;SDS011;43147;50.972;18.210;2023-12-04T02:17:35;64.70;;;23.60;;
57297;SDS011;43147;50.972;18.210;2023-12-04T02:20:01;57.10;;;24.10;;
57297;SDS011;43147;50.972;18.210;2023-12-04T02:22:28;62.90;;;24.00;;
57297;SDS011;43147;50.972;18.210;2023-12-04T02:24:54;69.20;;;24.70;;
57297;SDS011;43147;50.972;18.210;2023-12-04T02:27:25;42.80;;;23.80;;
57297;SDS011;43147;50.972;18.210;2023-12-04T02:29:54;66.30;;;26.30;;
57297;SDS011;43147;50.972;18.210;2023-12-04T02:32:23;43.20;;;19.90;;
57297;SDS011;43147;50.972;18.210;2023-12-04T02:34:49;64.50;;;18.30;;
57297;SDS011;43147;50.972;18.210;2023-12-04T02:37:15;44.70;;;17.60;;
57297;SDS011;43147;50.972;18.210;2023-12-04T02:39:42;55.40;;;21.10;;
57297;SDS011;43147;50.972;18.210;2023-12-04T02:42:08;76.80;;;16.90;;
57297;SDS011;43147;50.972;18.210;2023-12-04T02:44:34;45.60;;;11.90;;
57297;SDS011;43147;50.972;18.210;2023-12-04T02:46:59;49.50;;;17.90;;
57297;SDS011;43147;50.972;18.210;2023-12-04T02:49:25;37.60;;;15.40;;
57297;SDS011;43147;50.972;18.210;2023-12-04T02:51:50;42.80;;;18.30;;
57297;SDS011;43147;50.972;18.210;2023-12-04T02:54:16;70.20;;;25.70;;
57297;SDS011;43147;50.972;18.210;2023-12-04T02:56:42;64.00;;;17.70;;
57297;SDS011;43147;50.972;18.210;2023-12-04T02:59:07;63.60;;;16.00;;
57297;SDS011;43147;50.972;18.210;2023-12-04T03:01:33;34.30;;;17.00;;
57297;SDS011;43147;50.972;18.210;2023-12-04T03:03:59;39.20;;;14.00;;
57297;SDS011;43147;50.972;18.210;2023-12-04T03:06:25;40.40;;;12.30;;
57297;SDS011;43147;50.972;18.210;2023-12-04T03:08:50;22.40;;;10.90;;
57297;SDS011;43147;50.972;18.210;2023-12-04T03:11:16;43.70;;;13.00;;
57297;SDS011;43147;50.972;18.210;2023-12-04T03:13:41;27.50;;;15.40;;
57297;SDS011;43147;50.972;18.210;2023-12-04T03:16:17;37.80;;;13.40;;
57297;SDS011;43147;50.972;18.210;2023-12-04T03:18:43;27.50;;;13.90;;
57297;SDS011;43147;50.972;18.210;2023-12-04T03:21:09;37.90;;;15.90;;
57297;SDS011;43147;50.972;18.210;2023-12-04T03:23:34;37.30;;;16.40;;
57297;SDS011;43147;50.972;18.210;2023-12-04T03:26:00;32.40;;;14.40;;
57297;SDS011;43147;50.972;18.210;2023-12-04T03:28:26;27.10;;;13.50;;
57297;SDS011;43147;50.972;18.210;2023-12-04T03:30:52;29.70;;;13.20;;
57297;SDS011;43147;50.972;18.210;2023-12-04T03:33:17;26.40;;;10.80;;
57297;SDS011;43147;50.972;18.210;2023-12-04T03:35:43;37.50;;;17.90;;
57297;SDS011;43147;50.972;18.210;2023-12-04T03:38:09;53.70;;;18.40;;
57297;SDS011;43147;50.972;18.210;2023-12-04T03:40:35;28.20;;;14.30;;
57297;SDS011;43147;50.972;18.210;2023-12-04T03:43:01;28.30;;;17.10;;
57297;SDS011;43147;50.972;18.210;2023-12-04T03:45:26;30.10;;;14.80;;
57297;SDS011;43147;50.972;18.210;2023-12-04T03:47:53;61.30;;;17.40;;
57297;SDS011;43147;50.972;18.210;2023-12-04T03:50:19;28.90;;;15.00;;
57297;SDS011;43147;50.972;18.210;2023-12-04T03:52:44;31.40;;;16.10;;
57297;SDS011;43147;50.972;18.210;2023-12-04T03:55:10;27.90;;;10.90;;
57297;SDS011;43147;50.972;18.210;2023-12-04T03:57:35;21.00;;;11.40;;
57297;SDS011;43147;50.972;18.210;2023-12-04T04:00:01;15.30;;;9.70;;
57297;SDS011;43147;50.972;18.210;2023-12-04T04:02:26;26.30;;;11.90;;
57297;SDS011;43147;50.972;18.210;2023-12-04T04:04:55;36.80;;;13.40;;
57297;SDS011;43147;50.972;18.210;2023-12-04T04:07:21;22.30;;;13.80;;
57297;SDS011;43147;50.972;18.210;2023-12-04T04:09:46;29.70;;;8.80;;
57297;SDS011;43147;50.972;18.210;2023-12-04T04:12:12;34.40;;;11.20;;
57297;SDS011;43147;50.972;18.210;2023-12-04T04:14:37;42.00;;;11.90;;
57297;SDS011;43147;50.972;18.210;2023-12-04T04:17:03;25.80;;;11.60;;
57297;SDS011;43147;50.972;18.210;2023-12-04T04:19:29;7.90;;;6.60;;
57297;SDS011;43147;50.972;18.210;2023-12-04T04:21:55;10.50;;;5.80;;
57297;SDS011;43147;50.972;18.210;2023-12-04T04:24:20;17.00;;;7.30;;
57297;SDS011;43147;50.972;18.210;2023-12-04T04:26:45;19.50;;;9.80;;
57297;SDS011;43147;50.972;18.210;2023-12-04T04:29:11;15.50;;;11.40;;
57297;SDS011;43147;50.972;18.210;2023-12-04T04:31:36;13.00;;;8.60;;
57297;SDS011;43147;50.972;18.210;2023-12-04T04:34:02;15.00;;;8.60;;
57297;SDS011;43147;50.972;18.210;2023-12-04T04:36:28;26.80;;;13.30;;
57297;SDS011;43147;50.972;18.210;2023-12-04T04:38:53;20.80;;;11.40;;
57297;SDS011;43147;50.972;18.210;2023-12-04T04:41:19;23.10;;;10.50;;
57297;SDS011;43147;50.972;18.210;2023-12-04T04:43:44;27.00;;;13.70;;
57297;SDS011;43147;50.972;18.210;2023-12-04T04:46:10;24.30;;;14.50;;
57297;SDS011;43147;50.972;18.210;2023-12-04T04:48:35;17.10;;;10.70;;
57297;SDS011;43147;50.972;18.210;2023-12-04T04:51:01;20.90;;;9.80;;
57297;SDS011;43147;50.972;18.210;2023-12-04T04:53:27;40.30;;;15.00;;
57297;SDS011;43147;50.972;18.210;2023-12-04T04:55:52;52.80;;;23.40;;
57297;SDS011;43147;50.972;18.210;2023-12-04T04:58:18;15.40;;;9.60;;
57297;SDS011;43147;50.972;18.210;2023-12-04T05:00:43;26.20;;;11.40;;
57297;SDS011;43147;50.972;18.210;2023-12-04T05:03:10;31.70;;;12.50;;
57297;SDS011;43147;50.972;18.210;2023-12-04T05:05:38;20.40;;;11.00;;
57297;SDS011;43147;50.972;18.210;2023-12-04T05:08:04;34.40;;;16.70;;
57297;SDS011;43147;50.972;18.210;2023-12-04T05:10:29;47.90;;;12.80;;
57297;SDS011;43147;50.972;18.210;2023-12-04T05:12:55;39.70;;;16.60;;
57297;SDS011;43147;50.972;18.210;2023-12-04T05:15:21;27.70;;;12.70;;
57297;SDS011;43147;50.972;18.210;2023-12-04T05:17:46;58.50;;;16.40;;
57297;SDS011;43147;50.972;18.210;2023-12-04T05:20:12;30.90;;;12.10;;
57297;SDS011;43147;50.972;18.210;2023-12-04T05:22:38;38.70;;;17.00;;
57297;SDS011;43147;50.972;18.210;2023-12-04T05:25:04;30.90;;;13.20;;
57297;SDS011;43147;50.972;18.210;2023-12-04T05:27:30;46.10;;;16.40;;
57297;SDS011;43147;50.972;18.210;2023-12-04T05:29:55;25.30;;;12.50;;
57297;SDS011;43147;50.972;18.210;2023-12-04T05:32:21;36.70;;;17.60;;
57297;SDS011;43147;50.972;18.210;2023-12-04T05:34:46;20.30;;;11.20;;
57297;SDS011;43147;50.972;18.210;2023-12-04T05:37:12;21.40;;;9.40;;
57297;SDS011;43147;50.972;18.210;2023-12-04T05:39:41;22.50;;;11.70;;
57297;SDS011;43147;50.972;18.210;2023-12-04T05:42:07;8.30;;;5.60;;
57297;SDS011;43147;50.972;18.210;2023-12-04T05:44:33;30.10;;;11.40;;
57297;SDS011;43147;50.972;18.210;2023-12-04T05:46:59;51.10;;;17.20;;
57297;SDS011;43147;50.972;18.210;2023-12-04T05:49:25;36.10;;;13.30;;
57297;SDS011;43147;50.972;18.210;2023-12-04T05:51:50;50.60;;;8.90;;
57297;SDS011;43147;50.972;18.210;2023-12-04T05:54:16;30.80;;;12.70;;
57297;SDS011;43147;50.972;18.210;2023-12-04T05:56:42;28.40;;;15.40;;
57297;SDS011;43147;50.972;18.210;2023-12-04T05:59:08;46.10;;;15.60;;
57297;SDS011;43147;50.972;18.210;2023-12-04T06:01:34;34.60;;;13.80;;
57297;SDS011;43147;50.972;18.210;2023-12-04T06:03:59;37.90;;;12.40;;
57297;SDS011;43147;50.972;18.210;2023-12-04T06:06:25;30.80;;;10.50;;
57297;SDS011;43147;50.972;18.210;2023-12-04T06:08:53;12.70;;;9.10;;
57297;SDS011;43147;50.972;18.210;2023-12-04T06:11:18;37.60;;;17.50;;
57297;SDS011;43147;50.972;18.210;2023-12-04T06:13:44;36.80;;;11.30;;
57297;SDS011;43147;50.972;18.210;2023-12-04T06:16:09;17.10;;;9.10;;
57297;SDS011;43147;50.972;18.210;2023-12-04T06:18:35;35.20;;;13.90;;
57297;SDS011;43147;50.972;18.210;2023-12-04T06:21:01;33.80;;;12.00;;
57297;SDS011;43147;50.972;18.210;2023-12-04T06:23:26;70.70;;;22.00;;
57297;SDS011;43147;50.972;18.210;2023-12-04T06:25:52;24.50;;;7.70;;
57297;SDS011;43147;50.972;18.210;2023-12-04T06:28:18;43.60;;;15.80;;
57297;SDS011;43147;50.972;18.210;2023-12-04T06:30:44;47.00;;;17.80;;
57297;SDS011;43147;50.972;18.210;2023-12-04T06:33:10;41.60;;;13.90;;
57297;SDS011;43147;50.972;18.210;2023-12-04T06:35:36;58.30;;;15.80;;
57297;SDS011;43147;50.972;18.210;2023-12-04T06:38:05;51.50;;;17.40;;
57297;SDS011;43147;50.972;18.210;2023-12-04T06:40:32;54.40;;;17.30;;
57297;SDS011;43147;50.972;18.210;2023-12-04T06:42:59;37.90;;;17.10;;
57297;SDS011;43147;50.972;18.210;2023-12-04T06:45:25;38.50;;;14.20;;
57297;SDS011;43147;50.972;18.210;2023-12-04T06:47:52;54.10;;;23.10;;
57297;SDS011;43147;50.972;18.210;2023-12-04T06:50:19;69.30;;;28.40;;
57297;SDS011;43147;50.972;18.210;2023-12-04T06:52:44;49.90;;;21.60;;
57297;SDS011;43147;50.972;18.210;2023-12-04T06:55:10;31.90;;;14.70;;
57297;SDS011;43147;50.972;18.210;2023-12-04T06:57:37;30.70;;;13.20;;
57297;SDS011;43147;50.972;18.210;2023-12-04T07:00:03;55.40;;;22.70;;
57297;SDS011;43147;50.972;18.210;2023-12-04T07:02:29;62.90;;;27.20;;
57297;SDS011;43147;50.972;18.210;2023-12-04T07:04:55;52.50;;;20.80;;
57297;SDS011;43147;50.972;18.210;2023-12-04T07:07:21;48.50;;;19.70;;
57297;SDS011;43147;50.972;18.210;2023-12-04T07:09:46;24.00;;;9.50;;
57297;SDS011;43147;50.972;18.210;2023-12-04T07:12:13;38.30;;;15.50;;
57297;SDS011;43147;50.972;18.210;2023-12-04T07:14:38;19.90;;;12.00;;
57297;SDS011;43147;50.972;18.210;2023-12-04T07:17:04;22.80;;;12.10;;
57297;SDS011;43147;50.972;18.210;2023-12-04T07:19:30;31.60;;;14.30;;
57297;SDS011;43147;50.972;18.210;2023-12-04T07:21:56;60.90;;;21.50;;
57297;SDS011;43147;50.972;18.210;2023-12-04T07:24:21;34.30;;;12.30;;
57297;SDS011;43147;50.972;18.210;2023-12-04T07:26:47;42.30;;;13.20;;
57297;SDS011;43147;50.972;18.210;2023-12-04T07:29:13;37.30;;;12.50;;
57297;SDS011;43147;50.972;18.210;2023-12-04T07:31:38;40.10;;;13.90;;
57297;SDS011;43147;50.972;18.210;2023-12-04T07:34:06;40.80;;;15.50;;
57297;SDS011;43147;50.972;18.210;2023-12-04T07:36:31;69.80;;;23.30;;
57297;SDS011;43147;50.972;18.210;2023-12-04T07:38:57;75.70;;;27.00;;
57297;SDS011;43147;50.972;18.210;2023-12-04T07:41:22;85.10;;;27.40;;
57297;SDS011;43147;50.972;18.210;2023-12-04T07:43:48;74.60;;;26.50;;
57297;SDS011;43147;50.972;18.210;2023-12-04T07:46:16;91.10;;;29.80;;
57297;SDS011;43147;50.972;18.210;2023-12-04T07:48:41;94.10;;;33.50;;
57297;SDS011;43147;50.972;18.210;2023-12-04T07:51:09;86.20;;;31.20;;
57297;SDS011;43147;50.972;18.210;2023-12-04T07:53:35;89.20;;;34.20;;
57297;SDS011;43147;50.972;18.210;2023-12-04T07:56:01;74.30;;;31.80;;
57297;SDS011;43147;50.972;18.210;2023-12-04T07:58:29;76.50;;;32.30;;
57297;SDS011;43147;50.972;18.210;2023-12-04T08:00:55;81.10;;;32.60;;
57297;SDS011;43147;50.972;18.210;2023-12-04T08:03:21;65.60;;;27.40;;
57297;SDS011;43147;50.972;18.210;2023-12-04T08:05:47;68.10;;;26.00;;
57297;SDS011;43147;50.972;18.210;2023-12-04T08:08:13;53.30;;;22.60;;
57297;SDS011;43147;50.972;18.210;2023-12-04T08:10:38;78.00;;;28.90;;
57297;SDS011;43147;50.972;18.210;2023-12-04T08:13:04;68.40;;;25.50;;
57297;SDS011;43147;50.972;18.210;2023-12-04T08:15:30;72.30;;;28.00;;
57297;SDS011;43147;50.972;18.210;2023-12-04T08:17:56;72.80;;;26.10;;
57297;SDS011;43147;50.972;18.210;2023-12-04T08:20:23;59.80;;;24.00;;
57297;SDS011;43147;50.972;18.210;2023-12-04T08:22:48;50.40;;;22.40;;
57297;SDS011;43147;50.972;18.210;2023-12-04T08:25:17;57.90;;;26.60;;
57297;SDS011;43147;50.972;18.210;2023-12-04T08:27:42;68.70;;;29.20;;
57297;SDS011;43147;50.972;18.210;2023-12-04T08:30:08;77.60;;;33.90;;
57297;SDS011;43147;50.972;18.210;2023-12-04T08:32:34;76.80;;;33.10;;
57297;SDS011;43147;50.972;18.210;2023-12-04T08:34:59;73.00;;;34.20;;
57297;SDS011;43147;50.972;18.210;2023-12-04T08:37:25;82.60;;;37.00;;
57297;SDS011;43147;50.972;18.210;2023-12-04T08:39:51;82.20;;;41.20;;
57297;SDS011;43147;50.972;18.210;2023-12-04T08:42:16;74.40;;;47.40;;
57297;SDS011;43147;50.972;18.210;2023-12-04T08:44:42;69.20;;;45.90;;
57297;SDS011;43147;50.972;18.210;2023-12-04T08:47:13;62.40;;;42.60;;
57297;SDS011;43147;50.972;18.210;2023-12-04T08:49:39;66.10;;;43.40;;
57297;SDS011;43147;50.972;18.210;2023-12-04T08:52:09;61.90;;;43.00;;
57297;SDS011;43147;50.972;18.210;2023-12-04T08:54:38;66.70;;;44.40;;
57297;SDS011;43147;50.972;18.210;2023-12-04T08:57:04;68.20;;;43.90;;
57297;SDS011;43147;50.972;18.210;2023-12-04T08:59:30;63.60;;;43.40;;
57297;SDS011;43147;50.972;18.210;2023-12-04T09:01:55;65.30;;;44.50;;
57297;SDS011;43147;50.972;18.210;2023-12-04T09:04:21;63.70;;;42.50;;
57297;SDS011;43147;50.972;18.210;2023-12-04T09:06:47;66.60;;;44.20;;
57297;SDS011;43147;50.972;18.210;2023-12-04T09:09:12;59.50;;;41.70;;
57297;SDS011;43147;50.972;18.210;2023-12-04T09:11:41;58.90;;;42.20;;
57297;SDS011;43147;50.972;18.210;2023-12-04T09:14:08;49.70;;;38.10;;
57297;SDS011;43147;50.972;18.210;2023-12-04T09:16:34;48.60;;;37.20;;
57297;SDS011;43147;50.972;18.210;2023-12-04T09:19:00;48.30;;;37.20;;
57297;SDS011;43147;50.972;18.210;2023-12-04T09:21:25;51.80;;;37.60;;
57297;SDS011;43147;50.972;18.210;2023-12-04T09:23:51;56.10;;;39.10;;
57297;SDS011;43147;50.972;18.210;2023-12-04T09:26:17;74.20;;;45.80;;
57297;SDS011;43147;50.972;18.210;2023-12-04T09:28:42;85.60;;;49.70;;
57297;SDS011;43147;50.972;18.210;2023-12-04T09:31:08;87.40;;;48.90;;
57297;SDS011;43147;50.972;18.210;2023-12-04T09:33:34;89.60;;;50.30;;
57297;SDS011;43147;50.972;18.210;2023-12-04T09:36:01;99.10;;;53.70;;
57297;SDS011;43147;50.972;18.210;2023-12-04T09:38:28;102.90;;;58.60;;
57297;SDS011;43147;50.972;18.210;2023-12-04T09:40:54;97.30;;;56.60;;
57297;SDS011;43147;50.972;18.210;2023-12-04T09:43:23;104.50;;;59.80;;
57297;SDS011;43147;50.972;18.210;2023-12-04T09:45:51;101.70;;;54.90;;
57297;SDS011;43147;50.972;18.210;2023-12-04T09:48:17;129.40;;;63.30;;
57297;SDS011;43147;50.972;18.210;2023-12-04T09:50:42;119.50;;;63.00;;
57297;SDS011;43147;50.972;18.210;2023-12-04T09:53:10;108.90;;;59.70;;
57297;SDS011;43147;50.972;18.210;2023-12-04T09:55:36;107.40;;;59.80;;
57297;SDS011;43147;50.972;18.210;2023-12-04T09:58:02;115.60;;;64.60;;
57297;SDS011;43147;50.972;18.210;2023-12-04T10:00:29;134.50;;;75.20;;
57297;SDS011;43147;50.972;18.210;2023-12-04T10:02:56;95.80;;;58.20;;
57297;SDS011;43147;50.972;18.210;2023-12-04T10:05:23;85.30;;;55.50;;
57297;SDS011;43147;50.972;18.210;2023-12-04T10:07:49;80.10;;;52.30;;
57297;SDS011;43147;50.972;18.210;2023-12-04T10:10:14;77.00;;;49.70;;
57297;SDS011;43147;50.972;18.210;2023-12-04T10:12:40;78.70;;;50.80;;
57297;SDS011;43147;50.972;18.210;2023-12-04T10:15:11;84.90;;;53.70;;
57297;SDS011;43147;50.972;18.210;2023-12-04T10:17:37;70.50;;;47.50;;
57297;SDS011;43147;50.972;18.210;2023-12-04T10:20:06;72.60;;;50.20;;
57297;SDS011;43147;50.972;18.210;2023-12-04T10:22:58;73.40;;;50.40;;
57297;SDS011;43147;50.972;18.210;2023-12-04T10:25:27;74.80;;;52.20;;
57297;SDS011;43147;50.972;18.210;2023-12-04T10:27:55;71.90;;;51.00;;
57297;SDS011;43147;50.972;18.210;2023-12-04T10:30:32;69.80;;;48.20;;
57297;SDS011;43147;50.972;18.210;2023-12-04T10:32:59;70.10;;;48.80;;
57297;SDS011;43147;50.972;18.210;2023-12-04T10:35:28;67.80;;;44.20;;
57297;SDS011;43147;50.972;18.210;2023-12-04T10:37:55;62.80;;;44.30;;
57297;SDS011;43147;50.972;18.210;2023-12-04T10:40:25;68.10;;;45.30;;
57297;SDS011;43147;50.972;18.210;2023-12-04T10:45:50;70.50;;;45.50;;
57297;SDS011;43147;50.972;18.210;2023-12-04T10:48:17;75.60;;;47.70;;
57297;SDS011;43147;50.972;18.210;2023-12-04T10:50:44;88.90;;;52.60;;
57297;SDS011;43147;50.972;18.210;2023-12-04T10:53:14;85.80;;;51.50;;
57297;SDS011;43147;50.972;18.210;2023-12-04T10:55:40;93.70;;;56.30;;
57297;SDS011;43147;50.972;18.210;2023-12-04T10:58:08;113.60;;;58.60;;
57297;SDS011;43147;50.972;18.210;2023-12-04T11:00:43;113.30;;;62.00;;
57297;SDS011;43147;50.972;18.210;2023-12-04T11:03:13;112.10;;;60.10;;
57297;SDS011;43147;50.972;18.210;2023-12-04T11:05:42;100.30;;;57.10;;
57297;SDS011;43147;50.972;18.210;2023-12-04T11:08:11;67.40;;;44.70;;
57297;SDS011;43147;50.972;18.210;2023-12-04T11:10:38;58.80;;;40.50;;
57297;SDS011;43147;50.972;18.210;2023-12-04T11:13:28;70.90;;;48.90;;
57297;SDS011;43147;50.972;18.210;2023-12-04T11:15:56;74.10;;;48.60;;
57297;SDS011;43147;50.972;18.210;2023-12-04T11:18:26;74.40;;;47.30;;
57297;SDS011;43147;50.972;18.210;2023-12-04T11:21:01;86.80;;;51.50;;
57297;SDS011;43147;50.972;18.210;2023-12-04T11:23:31;71.20;;;42.90;;
57297;SDS011;43147;50.972;18.210;2023-12-04T11:25:57;91.00;;;51.60;;
57297;SDS011;43147;50.972;18.210;2023-12-04T11:28:23;60.40;;;41.40;;
57297;SDS011;43147;50.972;18.210;2023-12-04T11:30:48;69.10;;;46.80;;
57297;SDS011;43147;50.972;18.210;2023-12-04T11:33:16;58.00;;;40.90;;
57297;SDS011;43147;50.972;18.210;2023-12-04T11:35:43;56.80;;;40.50;;
57297;SDS011;43147;50.972;18.210;2023-12-04T11:38:12;46.90;;;35.90;;
57297;SDS011;43147;50.972;18.210;2023-12-04T11:40:39;50.90;;;38.10;;
57297;SDS011;43147;50.972;18.210;2023-12-04T11:43:41;50.10;;;37.50;;
57297;SDS011;43147;50.972;18.210;2023-12-04T11:46:08;42.10;;;32.60;;
57297;SDS011;43147;50.972;18.210;2023-12-04T11:48:38;45.00;;;34.40;;
57297;SDS011;43147;50.972;18.210;2023-12-04T11:51:07;46.50;;;35.80;;
57297;SDS011;43147;50.972;18.210;2023-12-04T11:53:36;45.90;;;34.80;;
57297;SDS011;43147;50.972;18.210;2023-12-04T11:56:10;45.80;;;34.40;;
57297;SDS011;43147;50.972;18.210;2023-12-04T11:58:43;45.10;;;32.30;;
57297;SDS011;43147;50.972;18.210;2023-12-04T12:01:09;44.90;;;33.50;;
57297;SDS011;43147;50.972;18.210;2023-12-04T12:03:35;47.70;;;35.00;;
57297;SDS011;43147;50.972;18.210;2023-12-04T12:06:01;51.50;;;36.50;;
57297;SDS011;43147;50.972;18.210;2023-12-04T12:08:28;51.20;;;34.50;;
57297;SDS011;43147;50.972;18.210;2023-12-04T12:10:54;52.30;;;36.20;;
57297;SDS011;43147;50.972;18.210;2023-12-04T12:13:20;46.40;;;36.10;;
57297;SDS011;43147;50.972;18.210;2023-12-04T12:15:47;49.00;;;35.80;;
57297;SDS011;43147;50.972;18.210;2023-12-04T12:18:15;51.00;;;38.10;;
57297;SDS011;43147;50.972;18.210;2023-12-04T12:20:43;49.10;;;37.10;;
57297;SDS011;43147;50.972;18.210;2023-12-04T12:23:09;50.40;;;37.60;;
57297;SDS011;43147;50.972;18.210;2023-12-04T12:25:35;54.80;;;40.70;;
57297;SDS011;43147;50.972;18.210;2023-12-04T12:28:04;57.70;;;42.20;;
57297;SDS011;43147;50.972;18.210;2023-12-04T12:30:30;59.10;;;40.80;;
57297;SDS011;43147;50.972;18.210;2023-12-04T12:32:56;53.00;;;39.60;;
57297;SDS011;43147;50.972;18.210;2023-12-04T12:35:22;57.90;;;42.50;;
57297;SDS011;43147;50.972;18.210;2023-12-04T12:37:49;61.70;;;44.40;;
57297;SDS011;43147;50.972;18.210;2023-12-04T12:40:19;52.80;;;24.40;;
57297;SDS011;43147;50.972;18.210;2023-12-04T12:42:45;69.30;;;28.40;;
57297;SDS011;43147;50.972;18.210;2023-12-04T12:45:11;57.70;;;26.80;;
57297;SDS011;43147;50.972;18.210;2023-12-04T12:47:37;61.30;;;24.60;;
57297;SDS011;43147;50.972;18.210;2023-12-04T12:50:03;47.50;;;22.60;;
57297;SDS011;43147;50.972;18.210;2023-12-04T12:52:33;53.90;;;23.00;;
57297;SDS011;43147;50.972;18.210;2023-12-04T12:54:59;55.30;;;22.80;;
57297;SDS011;43147;50.972;18.210;2023-12-04T12:57:24;45.40;;;21.80;;
57297;SDS011;43147;50.972;18.210;2023-12-04T12:59:50;48.20;;;20.80;;
57297;SDS011;43147;50.972;18.210;2023-12-04T13:02:16;49.90;;;20.50;;
57297;SDS011;43147;50.972;18.210;2023-12-04T13:04:42;56.20;;;21.00;;
57297;SDS011;43147;50.972;18.210;2023-12-04T13:07:08;55.00;;;22.00;;
57297;SDS011;43147;50.972;18.210;2023-12-04T13:09:34;62.80;;;24.60;;
57297;SDS011;43147;50.972;18.210;2023-12-04T13:12:05;50.70;;;21.70;;
57297;SDS011;43147;50.972;18.210;2023-12-04T13:14:31;47.30;;;21.10;;
57297;SDS011;43147;50.972;18.210;2023-12-04T13:16:59;42.40;;;20.20;;
57297;SDS011;43147;50.972;18.210;2023-12-04T13:19:26;51.10;;;21.00;;
57297;SDS011;43147;50.972;18.210;2023-12-04T13:21:52;46.20;;;20.20;;
57297;SDS011;43147;50.972;18.210;2023-12-04T13:24:18;38.80;;;19.30;;
57297;SDS011;43147;50.972;18.210;2023-12-04T13:26:46;45.00;;;17.40;;
57297;SDS011;43147;50.972;18.210;2023-12-04T13:29:12;43.80;;;20.00;;
57297;SDS011;43147;50.972;18.210;2023-12-04T13:31:41;29.50;;;13.80;;
57297;SDS011;43147;50.972;18.210;2023-12-04T13:34:06;40.40;;;15.70;;
57297;SDS011;43147;50.972;18.210;2023-12-04T13:36:34;24.40;;;10.70;;
57297;SDS011;43147;50.972;18.210;2023-12-04T13:39:02;50.20;;;19.90;;
57297;SDS011;43147;50.972;18.210;2023-12-04T13:41:30;53.20;;;20.80;;
57297;SDS011;43147;50.972;18.210;2023-12-04T13:44:15;48.70;;;20.90;;
57297;SDS011;43147;50.972;18.210;2023-12-04T13:46:41;44.50;;;16.90;;
57297;SDS011;43147;50.972;18.210;2023-12-04T13:49:07;54.50;;;20.90;;
57297;SDS011;43147;50.972;18.210;2023-12-04T13:51:32;37.90;;;16.40;;
57297;SDS011;43147;50.972;18.210;2023-12-04T13:53:59;50.10;;;21.10;;
57297;SDS011;43147;50.972;18.210;2023-12-04T13:56:35;42.70;;;15.20;;
57297;SDS011;43147;50.972;18.210;2023-12-04T13:59:09;44.90;;;18.10;;
57297;SDS011;43147;50.972;18.210;2023-12-04T14:01:44;33.50;;;12.50;;
57297;SDS011;43147;50.972;18.210;2023-12-04T14:04:09;45.40;;;18.40;;
57297;SDS011;43147;50.972;18.210;2023-12-04T14:06:37;44.30;;;17.80;;
57297;SDS011;43147;50.972;18.210;2023-12-04T14:09:02;46.40;;;17.20;;